Time;durP1;ratioP1;P1;durP2;ratioP2;P2;SDS_P1;SDS_P2;PMS_P1;PMS_P2;Temp;Humidity;BMP_temperature;BMP_pressure;BME280_temperature;BME280_humidity;BME280_pressure;Samples;Min_cycle;Max_cycle;Signal;HPM_P1;HPM_P2
2021/07/26 00:01:10;;;;;;;5.30;4.78;;;24.20;51.20;;;;;;5051501;28;20177;-82
2021/07/26 00:03:41;;;;;;;5.13;4.60;;;24.20;51.30;;;;;;5068792;28;20251;-82
2021/07/26 00:06:09;;;;;;;6.45;5.40;;;24.30;51.40;;;;;;5052027;28;20189;-82
2021/07/26 00:08:39;;;;;;;6.03;5.07;;;24.30;51.40;;;;;;5068528;28;20226;-82
2021/07/26 00:11:07;;;;;;;5.63;4.70;;;24.20;51.40;;;;;;5083942;28;20177;-82
2021/07/26 00:13:33;;;;;;;5.30;4.80;;;24.20;51.50;;;;;;5085612;28;20278;-82
2021/07/26 00:15:59;;;;;;;4.90;4.40;;;24.20;51.40;;;;;;5085277;28;20178;-82
2021/07/26 00:18:32;;;;;;;5.55;4.63;;;24.20;51.40;;;;;;5102136;28;20195;-82
2021/07/26 00:21:02;;;;;;;5.93;4.85;;;24.20;51.50;;;;;;5067926;28;20200;-82
2021/07/26 00:23:34;;;;;;;5.40;4.85;;;24.20;51.50;;;;;;5068406;28;20185;-82
2021/07/26 00:26:02;;;;;;;5.55;4.57;;;24.30;51.50;;;;;;5074105;28;20180;-82
2021/07/26 00:28:28;;;;;;;5.72;4.72;;;24.20;51.40;;;;;;5075301;28;20593;-82
2021/07/26 00:30:54;;;;;;;5.70;4.78;;;24.20;51.50;;;;;;5108647;28;20612;-82
2021/07/26 00:34:15;;;;;;;5.30;4.50;;;24.20;51.50;;;;;;5091773;28;20157;-82
2021/07/26 00:36:40;;;;;;;5.82;4.60;;;24.20;51.50;;;;;;5093181;28;20185;-82
2021/07/26 00:39:17;;;;;;;5.90;4.70;;;24.20;51.50;;;;;;5109585;28;20169;-82
2021/07/26 00:41:44;;;;;;;5.55;4.70;;;24.20;51.50;;;;;;5090729;28;20249;-82
2021/07/26 00:44:16;;;;;;;5.20;4.65;;;24.20;51.50;;;;;;5091788;28;20156;-82
2021/07/26 00:46:46;;;;;;;5.22;4.50;;;24.20;51.50;;;;;;5074392;28;20177;-82
2021/07/26 00:49:19;;;;;;;5.43;4.88;;;24.20;51.60;;;;;;5058540;28;20177;-82
2021/07/26 00:51:52;;;;;;;5.65;4.63;;;24.20;51.60;;;;;;5074857;28;20189;-82
2021/07/26 00:54:27;;;;;;;5.32;4.82;;;24.20;51.60;;;;;;5090769;28;20216;-82
2021/07/26 00:56:53;;;;;;;5.65;4.88;;;24.10;51.60;;;;;;5075757;28;20189;-82
2021/07/26 00:59:25;;;;;;;5.50;4.60;;;24.10;51.60;;;;;;5091061;28;20149;-82
2021/07/26 01:01:51;;;;;;;5.70;4.85;;;24.20;51.70;;;;;;5073444;28;20173;-82
2021/07/26 01:04:17;;;;;;;5.13;4.60;;;24.20;51.70;;;;;;5091916;28;20153;-82
2021/07/26 01:06:43;;;;;;;5.55;4.47;;;24.10;51.70;;;;;;5108172;28;20161;-82
2021/07/26 01:09:11;;;;;;;5.30;4.80;;;24.10;51.70;;;;;;5091032;28;20146;-82
2021/07/26 01:11:41;;;;;;;5.65;4.47;;;24.10;51.70;;;;;;5092547;28;20164;-82
2021/07/26 01:14:12;;;;;;;5.05;4.43;;;24.10;51.70;;;;;;5073777;28;20185;-82
2021/07/26 01:16:38;;;;;;;5.13;4.63;;;24.10;51.70;;;;;;5090453;28;20204;-82
2021/07/26 01:19:08;;;;;;;4.95;4.45;;;24.10;51.70;;;;;;5091395;28;20209;-82
2021/07/26 01:21:34;;;;;;;5.07;4.40;;;24.10;51.70;;;;;;5090348;28;20192;-82
2021/07/26 01:24:08;;;;;;;5.47;4.70;;;24.10;51.70;;;;;;5091408;28;20153;-82
2021/07/26 01:26:34;;;;;;;4.60;4.18;;;24.10;51.70;;;;;;5074593;28;20262;-82
2021/07/26 01:29:02;;;;;;;5.25;4.75;;;24.10;51.80;;;;;;5074795;28;20172;-82
2021/07/26 01:31:28;;;;;;;6.10;5.03;;;24.10;51.80;;;;;;5090697;28;20161;-82
2021/07/26 01:33:54;;;;;;;5.13;4.63;;;24.10;51.80;;;;;;5107942;28;20172;-82
2021/07/26 01:36:21;;;;;;;5.10;4.60;;;24.10;51.80;;;;;;5106265;28;20180;-82
2021/07/26 01:38:51;;;;;;;5.68;5.05;;;24.10;51.80;;;;;;5105256;28;20169;-83
2021/07/26 01:41:24;;;;;;;5.47;4.88;;;24.10;51.90;;;;;;5106094;28;20181;-82
2021/07/26 01:44:03;;;;;;;5.72;4.78;;;24.10;51.90;;;;;;5070451;28;20184;-82
2021/07/26 01:46:46;;;;;;;5.35;4.63;;;24.10;51.90;;;;;;5087230;28;20206;-82
2021/07/26 01:49:25;;;;;;;5.18;4.65;;;24.10;51.90;;;;;;5089436;28;20157;-82
2021/07/26 01:51:58;;;;;;;5.25;4.68;;;24.00;51.90;;;;;;5121671;28;20173;-82
2021/07/26 01:54:25;;;;;;;5.53;4.85;;;24.10;51.90;;;;;;5054304;28;20209;-82
2021/07/26 01:56:51;;;;;;;5.50;4.72;;;24.00;51.90;;;;;;5104386;28;20170;-82
2021/07/26 01:59:22;;;;;;;5.20;4.57;;;24.00;51.90;;;;;;5088360;28;20149;-82
2021/07/26 02:01:48;;;;;;;5.43;4.70;;;24.00;51.90;;;;;;5070201;28;20360;-82
2021/07/26 02:04:14;;;;;;;6.07;4.82;;;24.00;51.90;;;;;;5105110;28;20196;-82
2021/07/26 02:06:44;;;;;;;5.18;4.68;;;24.00;51.90;;;;;;5086794;28;20146;-82
2021/07/26 02:09:10;;;;;;;5.78;4.90;;;24.00;52.00;;;;;;5086927;28;20196;-82
2021/07/26 02:11:36;;;;;;;5.35;4.55;;;24.00;52.00;;;;;;5104370;28;20171;-82
2021/07/26 02:14:10;;;;;;;5.20;4.70;;;24.00;52.00;;;;;;5104071;28;20256;-82
2021/07/26 02:16:42;;;;;;;5.15;4.30;;;24.00;52.10;;;;;;5086921;28;20203;-82
2021/07/26 02:19:12;;;;;;;5.40;4.80;;;24.10;52.10;;;;;;5070572;28;20220;-82
2021/07/26 02:21:37;;;;;;;5.40;4.75;;;24.00;52.10;;;;;;5053643;28;20213;-82
2021/07/26 02:24:09;;;;;;;5.65;4.88;;;24.00;52.10;;;;;;5087053;28;20165;-82
2021/07/26 02:26:35;;;;;;;5.45;4.47;;;24.00;52.10;;;;;;5028924;28;20212;-82
2021/07/26 02:29:01;;;;;;;5.82;4.45;;;24.00;52.10;;;;;;5063058;28;20282;-82
2021/07/26 02:31:33;;;;;;;5.45;4.90;;;24.00;52.10;;;;;;5062866;28;20179;-83
2021/07/26 02:33:59;;;;;;;5.68;4.75;;;23.90;52.10;;;;;;5045775;28;20190;-82
2021/07/26 02:36:29;;;;;;;5.07;4.40;;;24.00;52.10;;;;;;5063166;28;20167;-82
2021/07/26 02:38:58;;;;;;;5.07;4.57;;;24.00;52.20;;;;;;5045615;28;20281;-83
2021/07/26 02:41:29;;;;;;;6.35;4.57;;;24.00;52.70;;;;;;5045710;28;20187;-82
2021/07/26 02:43:59;;;;;;;5.10;4.60;;;23.90;52.10;;;;;;5062530;28;20195;-82
2021/07/26 02:46:32;;;;;;;5.15;4.50;;;23.90;52.20;;;;;;5045834;28;20638;-82
2021/07/26 02:49:04;;;;;;;5.57;4.72;;;23.80;52.10;;;;;;5062019;28;20217;-81
2021/07/26 02:51:30;;;;;;;5.40;4.53;;;23.90;52.20;;;;;;5062346;28;20225;-82
2021/07/26 02:54:00;;;;;;;5.22;4.50;;;23.90;52.20;;;;;;5062764;28;20163;-82
2021/07/26 02:56:26;;;;;;;4.90;4.40;;;23.90;52.20;;;;;;5045354;28;20202;-81
2021/07/26 02:58:53;;;;;;;5.03;4.30;;;23.90;52.20;;;;;;5062737;28;20223;-82
2021/07/26 03:01:23;;;;;;;5.45;4.60;;;23.90;52.20;;;;;;5028933;28;20639;-82
2021/07/26 03:03:49;;;;;;;5.82;4.57;;;23.90;52.30;;;;;;5062605;28;20225;-82
2021/07/26 03:06:16;;;;;;;5.65;4.65;;;23.90;52.30;;;;;;5103715;28;20176;-82
2021/07/26 03:08:42;;;;;;;5.65;4.93;;;23.90;52.30;;;;;;5086512;28;20150;-82
2021/07/26 03:11:10;;;;;;;5.10;4.60;;;23.90;52.30;;;;;;5103609;28;20192;-82
2021/07/26 03:13:42;;;;;;;5.90;4.93;;;23.90;52.30;;;;;;5086722;28;20232;-82
2021/07/26 03:16:09;;;;;;;5.40;4.60;;;23.90;52.30;;;;;;5069184;28;20227;-82
2021/07/26 03:18:39;;;;;;;5.60;4.60;;;23.90;52.30;;;;;;5103404;28;20161;-82
2021/07/26 03:21:05;;;;;;;5.80;4.82;;;23.90;52.30;;;;;;5086051;28;20181;-82
2021/07/26 03:23:32;;;;;;;5.15;4.43;;;23.90;52.30;;;;;;5087501;28;20145;-82
2021/07/26 03:26:02;;;;;;;5.22;4.72;;;23.90;52.40;;;;;;5086548;28;20153;-82
2021/07/26 03:28:35;;;;;;;5.32;4.82;;;23.90;52.40;;;;;;5068394;28;20181;-82
2021/07/26 03:31:06;;;;;;;5.95;4.80;;;23.90;52.40;;;;;;5085030;28;20181;-82
2021/07/26 03:33:34;;;;;;;5.63;4.80;;;23.90;52.40;;;;;;5068280;28;20173;-82
2021/07/26 03:36:04;;;;;;;5.40;4.65;;;23.90;52.40;;;;;;5103291;28;20246;-83
2021/07/26 03:38:34;;;;;;;5.40;4.85;;;23.90;52.40;;;;;;5052303;28;20212;-82
2021/07/26 03:41:06;;;;;;;5.43;4.70;;;23.90;52.40;;;;;;5068421;28;20189;-82
2021/07/26 03:43:32;;;;;;;6.55;4.85;;;23.90;52.40;;;;;;5085275;28;20185;-82
2021/07/26 03:46:09;;;;;;;5.25;4.53;;;23.90;52.50;;;;;;5085413;28;20718;-82
2021/07/26 03:48:39;;;;;;;6.10;4.97;;;23.90;52.50;;;;;;5068593;28;20219;-82
2021/07/26 03:51:05;;;;;;;5.78;4.80;;;23.90;52.50;;;;;;5068366;28;20268;-82
2021/07/26 03:53:31;;;;;;;4.95;4.38;;;23.90;52.50;;;;;;5103124;28;20181;-82
2021/07/26 03:55:58;;;;;;;5.60;4.82;;;23.80;52.50;;;;;;5087119;28;20272;-82
2021/07/26 03:58:24;;;;;;;5.80;5.20;;;23.90;52.50;;;;;;5102400;28;20165;-82
2021/07/26 04:00:50;;;;;;;5.22;4.72;;;23.90;53.10;;;;;;5086932;28;20189;-82
2021/07/26 04:03:22;;;;;;;5.07;4.55;;;23.80;52.50;;;;;;5118574;28;20220;-82
2021/07/26 04:06:06;;;;;;;5.13;4.55;;;23.90;52.50;;;;;;5103877;28;20169;-83
2021/07/26 04:08:35;;;;;;;5.10;4.60;;;23.80;52.50;;;;;;5086453;28;20145;-82
2021/07/26 04:11:15;;;;;;;5.53;4.80;;;23.80;52.50;;;;;;5085860;28;20575;-82
2021/07/26 04:13:50;;;;;;;4.93;4.20;;;23.80;52.50;;;;;;5069272;28;20181;-82
2021/07/26 04:16:16;;;;;;;5.38;4.60;;;23.90;52.80;;;;;;5051997;28;20759;-83
2021/07/26 04:18:50;;;;;;;5.15;4.63;;;23.90;52.80;;;;;;5086319;28;20142;-81
2021/07/26 04:21:16;;;;;;;5.43;4.63;;;23.90;53.40;;;;;;5103426;28;20166;-82
2021/07/26 04:23:47;;;;;;;5.00;4.28;;;23.90;54.60;;;;;;5103133;28;20172;-81
2021/07/26 04:26:18;;;;;;;4.88;4.00;;;23.80;55.00;;;;;;5068528;28;20185;-82
2021/07/26 04:28:48;;;;;;;4.85;4.35;;;23.90;54.60;;;;;;5084703;28;20189;-82
2021/07/26 04:31:14;;;;;;;4.93;4.43;;;23.90;54.40;;;;;;5068255;28;20236;-81
2021/07/26 04:33:40;;;;;;;6.00;4.82;;;24.00;54.30;;;;;;5086223;28;20165;-82
2021/07/26 04:36:06;;;;;;;4.85;4.35;;;24.00;53.90;;;;;;5119965;28;20719;-81
2021/07/26 04:38:36;;;;;;;5.10;4.50;;;24.00;53.90;;;;;;5102901;28;20176;-82
2021/07/26 04:41:09;;;;;;;4.90;4.40;;;24.00;54.20;;;;;;5067406;28;20181;-82
2021/07/26 04:43:36;;;;;;;4.72;4.20;;;24.00;53.90;;;;;;5084629;28;20177;-82
2021/07/26 04:46:02;;;;;;;5.18;4.13;;;24.10;54.00;;;;;;5102088;28;20176;-82
2021/07/26 04:48:28;;;;;;;4.60;4.10;;;24.10;53.90;;;;;;5086074;28;20161;-81
2021/07/26 04:50:58;;;;;;;5.57;4.57;;;24.10;54.30;;;;;;5119291;28;20161;-82
2021/07/26 04:53:32;;;;;;;4.60;4.18;;;24.10;53.70;;;;;;5067532;28;20647;-82
2021/07/26 04:55:59;;;;;;;4.75;4.32;;;24.10;53.80;;;;;;5068161;28;20216;-82
2021/07/26 04:58:33;;;;;;;4.32;3.92;;;24.20;53.50;;;;;;5085226;28;20184;-82
2021/07/26 05:01:00;;;;;;;5.22;4.30;;;24.20;53.70;;;;;;5067353;28;20181;-81
2021/07/26 05:03:26;;;;;;;5.72;4.57;;;24.30;53.50;;;;;;5101618;28;20225;-82
2021/07/26 05:05:51;;;;;;;4.68;4.20;;;24.20;53.30;;;;;;5085727;28;20540;-82
2021/07/26 05:08:21;;;;;;;4.57;4.15;;;24.20;53.10;;;;;;5084891;28;20157;-81
2021/07/26 05:10:53;;;;;;;4.78;4.28;;;24.20;53.50;;;;;;5052855;28;20632;-81
2021/07/26 05:13:19;;;;;;;4.60;4.03;;;24.20;53.40;;;;;;5071377;28;20178;-82
2021/07/26 05:15:45;;;;;;;5.00;4.50;;;24.30;53.40;;;;;;5106033;28;20189;-82
2021/07/26 05:18:15;;;;;;;4.40;4.00;;;24.30;53.40;;;;;;5087813;28;20220;-82
2021/07/26 05:20:45;;;;;;;4.53;4.13;;;24.30;53.20;;;;;;5087458;28;20181;-81
2021/07/26 05:23:11;;;;;;;4.90;4.10;;;24.40;53.20;;;;;;5087672;28;20211;-81
2021/07/26 05:25:45;;;;;;;4.90;4.40;;;24.30;53.10;;;;;;5106078;28;20165;-82
2021/07/26 05:28:18;;;;;;;4.90;4.40;;;24.20;53.20;;;;;;5071100;28;20188;-81
2021/07/26 05:30:44;;;;;;;4.72;4.25;;;24.20;53.20;;;;;;5088058;28;20181;-81
2021/07/26 05:33:10;;;;;;;4.63;4.15;;;24.20;53.20;;;;;;5105018;28;20161;-81
2021/07/26 05:35:36;;;;;;;5.10;4.60;;;24.30;53.60;;;;;;5105426;28;20674;-81
2021/07/26 05:38:03;;;;;;;5.35;4.40;;;24.30;53.00;;;;;;5088795;28;20168;-82
2021/07/26 05:40:29;;;;;;;4.78;4.28;;;24.20;53.40;;;;;;5105084;28;20165;-82
2021/07/26 05:42:59;;;;;;;4.30;3.90;;;24.20;53.70;;;;;;5105707;28;20184;-81
2021/07/26 05:45:26;;;;;;;4.45;4.05;;;24.30;53.50;;;;;;5070330;28;20185;-81
2021/07/26 05:47:52;;;;;;;4.40;4.00;;;24.30;53.50;;;;;;5105693;28;20165;-82
2021/07/26 05:50:19;;;;;;;4.65;4.13;;;24.30;53.30;;;;;;5088057;28;20161;-81
2021/07/26 05:52:46;;;;;;;5.05;4.43;;;24.30;53.10;;;;;;5088080;28;20172;-81
2021/07/26 05:55:17;;;;;;;4.95;4.45;;;24.20;53.20;;;;;;5088184;28;20237;-81
2021/07/26 05:57:46;;;;;;;5.25;4.30;;;24.30;53.70;;;;;;5070301;28;20242;-81
2021/07/26 06:00:23;;;;;;;4.35;3.95;;;24.30;53.40;;;;;;5105711;28;20169;-82
2021/07/26 06:02:50;;;;;;;4.43;4.03;;;24.30;53.30;;;;;;5067025;28;20221;-82
2021/07/26 06:05:16;;;;;;;4.75;4.22;;;24.30;53.30;;;;;;5084913;28;20168;-81
2021/07/26 06:07:48;;;;;;;5.03;4.47;;;24.30;53.60;;;;;;5084728;28;20159;-81
2021/07/26 06:10:14;;;;;;;4.80;4.30;;;24.30;53.30;;;;;;5067466;28;20182;-81
2021/07/26 06:12:40;;;;;;;4.38;3.85;;;24.20;53.90;;;;;;5069142;28;20161;-81
2021/07/26 06:15:06;;;;;;;4.68;4.05;;;24.30;53.50;;;;;;5067457;28;20217;-81
2021/07/26 06:17:32;;;;;;;5.40;4.43;;;24.30;53.40;;;;;;5085626;28;20170;-81
2021/07/26 06:19:58;;;;;;;4.72;4.03;;;24.30;53.30;;;;;;5084159;28;20682;-80
2021/07/26 06:22:24;;;;;;;4.60;4.10;;;24.30;53.90;;;;;;5068002;28;20243;-80
2021/07/26 06:24:52;;;;;;;4.70;4.25;;;24.30;53.90;;;;;;5068505;28;20161;-82
2021/07/26 06:27:18;;;;;;;4.53;4.03;;;24.30;53.30;;;;;;5068060;28;20158;-82
2021/07/26 06:29:44;;;;;;;4.80;4.30;;;24.30;53.40;;;;;;5083983;28;20173;-82
2021/07/26 06:32:10;;;;;;;4.70;4.18;;;24.30;53.30;;;;;;5067197;28;20515;-82
2021/07/26 06:34:41;;;;;;;4.97;4.30;;;24.30;53.30;;;;;;5066835;28;20181;-82
2021/07/26 06:37:11;;;;;;;4.78;4.30;;;24.30;53.30;;;;;;5052806;28;20209;-82
2021/07/26 06:39:42;;;;;;;4.97;4.20;;;24.30;53.40;;;;;;5084889;28;20518;-83
2021/07/26 06:42:12;;;;;;;4.45;3.90;;;24.30;53.50;;;;;;5069583;28;20613;-82
2021/07/26 06:44:39;;;;;;;4.97;4.20;;;24.30;53.70;;;;;;5071159;28;20221;-81
2021/07/26 06:47:05;;;;;;;4.93;4.30;;;24.40;53.70;;;;;;5068854;28;20153;-81
2021/07/26 06:49:33;;;;;;;5.00;4.00;;;24.30;53.70;;;;;;5068549;28;20150;-81
2021/07/26 06:52:03;;;;;;;4.53;4.07;;;24.30;53.70;;;;;;5069664;28;20158;-81
2021/07/26 06:54:33;;;;;;;4.45;4.05;;;24.30;53.70;;;;;;5078403;28;20277;-82
2021/07/26 06:56:59;;;;;;;5.20;4.00;;;24.30;54.00;;;;;;5070221;28;20576;-80
2021/07/26 06:59:27;;;;;;;4.38;3.92;;;24.30;53.70;;;;;;5094048;28;20192;-81
2021/07/26 07:01:52;;;;;;;4.80;4.15;;;24.30;53.70;;;;;;5101757;28;20169;-81
2021/07/26 07:04:18;;;;;;;5.10;4.60;;;24.30;53.70;;;;;;5106782;28;20207;-82
2021/07/26 07:06:44;;;;;;;5.43;4.57;;;24.30;53.90;;;;;;5107052;28;20252;-80
2021/07/26 07:09:15;;;;;;;4.97;4.18;;;24.30;53.70;;;;;;5107379;28;20168;-81
2021/07/26 07:11:41;;;;;;;5.38;4.10;;;24.30;54.10;;;;;;5108324;28;20673;-80
2021/07/26 07:14:07;;;;;;;4.75;4.25;;;24.30;53.70;;;;;;5090181;28;20247;-81
2021/07/26 07:16:37;;;;;;;5.18;4.30;;;24.30;53.80;;;;;;5109094;28;20221;-81
2021/07/26 07:19:03;;;;;;;5.10;4.40;;;24.40;53.70;;;;;;5108298;28;20188;-81
2021/07/26 07:21:31;;;;;;;5.05;4.55;;;24.40;53.60;;;;;;5091453;28;20172;-81
2021/07/26 07:24:02;;;;;;;4.60;4.10;;;24.40;53.60;;;;;;5108513;28;20156;-81
2021/07/26 07:26:28;;;;;;;4.90;4.40;;;24.40;53.70;;;;;;5090948;28;20192;-81
2021/07/26 07:28:54;;;;;;;4.80;4.15;;;24.40;53.70;;;;;;5108271;28;20180;-80
2021/07/26 07:31:26;;;;;;;5.25;4.50;;;24.40;53.70;;;;;;5091365;28;20169;-81
2021/07/26 07:33:56;;;;;;;4.65;4.00;;;24.40;53.60;;;;;;5091407;28;20172;-81
2021/07/26 07:36:25;;;;;;;5.57;4.55;;;24.30;53.80;;;;;;5107602;28;20180;-80
2021/07/26 07:38:59;;;;;;;4.93;4.15;;;24.40;53.70;;;;;;5073174;28;20208;-81
2021/07/26 07:41:30;;;;;;;4.53;4.00;;;24.50;54.50;;;;;;5074831;28;20192;-80
2021/07/26 07:43:59;;;;;;;4.63;4.10;;;24.50;53.40;;;;;;5074306;28;20204;-80
2021/07/26 07:46:30;;;;;;;4.60;4.10;;;24.50;53.90;;;;;;5056213;28;20191;-81
2021/07/26 07:48:59;;;;;;;5.70;4.50;;;24.40;53.80;;;;;;5089620;28;20191;-80
2021/07/26 07:51:28;;;;;;;4.82;4.30;;;24.40;53.70;;;;;;5072440;28;20188;-80
2021/07/26 07:53:56;;;;;;;4.90;4.28;;;24.30;53.80;;;;;;5091159;28;20179;-81
2021/07/26 07:56:24;;;;;;;4.75;4.25;;;24.50;53.80;;;;;;5087243;28;20200;-80
2021/07/26 07:58:55;;;;;;;4.43;4.00;;;24.40;54.50;;;;;;5105603;28;20203;-80
2021/07/26 08:01:31;;;;;;;5.53;4.38;;;24.40;54.10;;;;;;5089268;28;20180;-81
2021/07/26 08:03:59;;;;;;;4.93;4.43;;;24.40;53.90;;;;;;5072551;28;20216;-79
2021/07/26 08:06:28;;;;;;;4.78;4.20;;;24.40;53.90;;;;;;5107466;28;20227;-80
2021/07/26 08:08:55;;;;;;;4.78;4.30;;;24.50;53.80;;;;;;5057903;28;20212;-79
2021/07/26 08:11:22;;;;;;;6.53;4.80;;;24.50;53.80;;;;;;5107000;28;20203;-79
2021/07/26 08:13:50;;;;;;;5.18;4.30;;;24.40;54.00;;;;;;5107730;28;20180;-80
2021/07/26 08:16:20;;;;;;;5.18;4.28;;;24.40;54.10;;;;;;5107264;28;20200;-80
2021/07/26 08:18:51;;;;;;;4.80;4.30;;;24.50;53.90;;;;;;5124193;28;20275;-80
2021/07/26 08:21:21;;;;;;;5.60;4.80;;;24.50;54.00;;;;;;5106780;28;20181;-81
2021/07/26 08:23:47;;;;;;;4.40;4.00;;;24.50;54.00;;;;;;5072988;28;20189;-82
2021/07/26 08:26:12;;;;;;;4.82;4.28;;;24.50;53.90;;;;;;5090662;28;20176;-80
2021/07/26 08:28:38;;;;;;;6.20;4.68;;;24.40;53.90;;;;;;5106112;28;20245;-80
2021/07/26 08:31:05;;;;;;;5.40;4.38;;;24.50;53.90;;;;;;5072096;28;20165;-81
2021/07/26 08:33:37;;;;;;;4.97;4.47;;;24.50;53.70;;;;;;5071589;28;20173;-80
2021/07/26 08:36:12;;;;;;;5.28;4.40;;;24.60;54.00;;;;;;5071015;28;20679;-81
2021/07/26 08:38:46;;;;;;;5.68;4.82;;;24.60;53.80;;;;;;5088341;28;20220;-80
2021/07/26 08:41:14;;;;;;;7.10;4.32;;;24.50;53.90;;;;;;5088819;28;20267;-81
2021/07/26 08:43:41;;;;;;;5.35;4.30;;;24.60;53.90;;;;;;5071541;28;20627;-81
2021/07/26 08:46:18;;;;;;;4.90;4.40;;;24.60;53.80;;;;;;5073420;28;20180;-80
2021/07/26 08:48:47;;;;;;;6.00;4.70;;;24.60;53.80;;;;;;5075330;28;20186;-81
2021/07/26 08:51:16;;;;;;;5.65;4.53;;;24.60;53.90;;;;;;5090833;28;20184;-81
2021/07/26 08:53:42;;;;;;;6.22;4.55;;;24.60;53.90;;;;;;5092855;28;20167;-81
2021/07/26 08:56:15;;;;;;;5.20;4.70;;;24.60;53.90;;;;;;5093269;28;20196;-81
2021/07/26 08:58:42;;;;;;;4.63;4.07;;;24.50;54.00;;;;;;5092374;28;20169;-81
2021/07/26 09:01:10;;;;;;;5.10;4.60;;;24.50;53.90;;;;;;5094902;28;20640;-81
2021/07/26 09:03:37;;;;;;;5.95;4.43;;;24.60;54.30;;;;;;5093545;28;20231;-81
2021/07/26 09:06:03;;;;;;;6.47;4.70;;;24.60;54.00;;;;;;5123940;27;20290;-82
2021/07/26 09:08:37;;;;;;;6.47;4.32;;;24.50;53.90;;;;;;5092882;28;20179;-81
2021/07/26 09:11:03;;;;;;;5.57;4.45;;;24.50;54.00;;;;;;5142030;27;20156;-82
2021/07/26 09:13:44;;;;;;;5.75;5.05;;;24.60;54.10;;;;;;5092622;28;20173;-81
2021/07/26 09:16:21;;;;;;;5.38;4.45;;;24.60;54.20;;;;;;5093458;28;20651;-81
2021/07/26 09:19:05;;;;;;;5.68;4.55;;;24.60;54.00;;;;;;5075419;28;20635;-81
2021/07/26 09:21:50;;;;;;;5.22;4.40;;;24.60;54.00;;;;;;5109188;28;20160;-81
2021/07/26 09:24:28;;;;;;;5.38;4.63;;;24.60;54.00;;;;;;5109439;28;20171;-81
2021/07/26 09:27:06;;;;;;;6.13;4.72;;;24.60;54.20;;;;;;5058316;28;20230;-81
2021/07/26 09:29:36;;;;;;;6.10;4.53;;;24.60;54.20;;;;;;5092576;28;20148;-81
2021/07/26 09:32:03;;;;;;;4.55;4.07;;;24.50;54.20;;;;;;5056766;28;20176;-81
2021/07/26 09:34:31;;;;;;;5.00;4.50;;;24.50;54.30;;;;;;5125386;28;20204;-81
2021/07/26 09:36:58;;;;;;;5.00;4.50;;;24.50;54.30;;;;;;5074083;28;20186;-81
2021/07/26 09:39:30;;;;;;;5.10;4.60;;;24.60;54.20;;;;;;5057132;28;20181;-81
2021/07/26 09:42:00;;;;;;;5.43;4.32;;;24.60;54.10;;;;;;5074292;28;20180;-81
2021/07/26 09:44:31;;;;;;;5.88;4.72;;;24.60;54.10;;;;;;5090722;28;20216;-81
2021/07/26 09:47:17;;;;;;;5.88;5.00;;;24.60;54.10;;;;;;5074178;28;20204;-80
2021/07/26 09:49:49;;;;;;;5.70;4.65;;;24.60;54.00;;;;;;5108025;28;20217;-80
2021/07/26 09:52:21;;;;;;;5.82;4.68;;;24.60;54.10;;;;;;5074164;28;20539;-80
2021/07/26 09:54:49;;;;;;;5.25;4.30;;;24.60;54.00;;;;;;5059623;28;20208;-80
2021/07/26 09:57:18;;;;;;;4.93;4.32;;;24.60;54.80;;;;;;5072086;28;20215;-81
2021/07/26 09:59:49;;;;;;;5.57;4.57;;;24.60;53.90;;;;;;5089968;28;20187;-80
2021/07/26 10:02:18;;;;;;;6.15;4.88;;;24.60;54.00;;;;;;5072959;28;20193;-80
2021/07/26 10:04:45;;;;;;;5.45;4.55;;;24.70;53.90;;;;;;5090928;28;20161;-80
2021/07/26 10:07:16;;;;;;;4.88;4.30;;;24.60;53.90;;;;;;5074033;28;20177;-80
2021/07/26 10:09:45;;;;;;;5.88;4.82;;;24.60;54.10;;;;;;5074245;28;20172;-81
2021/07/26 10:12:15;;;;;;;6.47;5.07;;;24.60;54.20;;;;;;5055944;28;20173;-80
2021/07/26 10:14:46;;;;;;;5.50;4.82;;;24.60;54.10;;;;;;5089400;28;20624;-81
2021/07/26 10:17:13;;;;;;;5.97;4.72;;;24.60;54.10;;;;;;5090855;28;20177;-80
2021/07/26 10:19:39;;;;;;;5.57;4.68;;;24.60;54.10;;;;;;5107274;28;20163;-80
2021/07/26 10:22:07;;;;;;;5.20;4.70;;;24.60;54.20;;;;;;5108368;28;20153;-80
2021/07/26 10:24:39;;;;;;;5.28;4.55;;;24.60;54.20;;;;;;5090069;28;20176;-81
2021/07/26 10:27:16;;;;;;;5.57;4.70;;;24.60;54.10;;;;;;5089669;28;20179;-82
2021/07/26 10:29:56;;;;;;;4.80;4.22;;;24.60;54.10;;;;;;5089914;28;20168;-82
2021/07/26 10:32:35;;;;;;;6.60;4.90;;;24.50;54.20;;;;;;5073387;28;20176;-82
2021/07/26 10:35:03;;;;;;;5.32;4.57;;;24.50;54.10;;;;;;5108368;28;20184;-82
2021/07/26 10:37:49;;;;;;;5.40;4.50;;;24.60;54.20;;;;;;5090861;28;20172;-82
2021/07/26 10:40:36;;;;;;;5.00;4.40;;;24.60;53.90;;;;;;5107712;28;20165;-82
2021/07/26 10:43:03;;;;;;;5.47;4.82;;;24.60;54.10;;;;;;5056916;28;20184;-82
2021/07/26 10:45:49;;;;;;;6.38;4.85;;;24.50;54.00;;;;;;5090543;28;20184;-82
2021/07/26 10:48:34;;;;;;;5.85;4.70;;;24.60;54.00;;;;;;5092704;28;20161;-82
2021/07/26 10:51:24;;;;;;;5.30;4.28;;;24.60;54.00;;;;;;5090015;28;20173;-82
2021/07/26 10:53:58;;;;;;;5.47;4.63;;;24.60;54.00;;;;;;5078130;28;20584;-82
2021/07/26 10:56:51;;;;;;;5.35;4.57;;;24.60;53.90;;;;;;5107336;28;20272;-82
2021/07/26 10:59:17;;;;;;;5.85;4.97;;;24.60;53.90;;;;;;5092656;28;20192;-82
2021/07/26 11:02:06;;;;;;;5.30;4.45;;;24.60;54.00;;;;;;5107251;28;20163;-82
2021/07/26 11:04:36;;;;;;;5.30;4.72;;;24.60;54.10;;;;;;5055232;28;20193;-82
2021/07/26 11:07:08;;;;;;;5.45;4.55;;;24.60;53.90;;;;;;5090590;28;20650;-82
2021/07/26 11:09:39;;;;;;;6.25;5.10;;;24.60;53.80;;;;;;5072705;28;20192;-82
2021/07/26 11:12:09;;;;;;;5.20;4.57;;;24.70;53.90;;;;;;5090079;28;20175;-82
2021/07/26 11:14:36;;;;;;;5.22;4.57;;;24.70;53.80;;;;;;5089715;28;20275;-82
2021/07/26 11:17:04;;;;;;;5.18;4.20;;;24.60;53.80;;;;;;5089793;28;20172;-82
2021/07/26 11:19:58;;;;;;;6.10;4.65;;;24.60;53.90;;;;;;5106735;28;20172;-82
2021/07/26 11:22:45;;;;;;;5.63;4.45;;;24.60;54.00;;;;;;5093414;28;20172;-83
2021/07/26 11:25:17;;;;;;;5.75;4.85;;;24.60;53.80;;;;;;5091983;28;20240;-82
2021/07/26 11:27:48;;;;;;;5.20;4.53;;;24.60;53.90;;;;;;5072064;28;20187;-82
2021/07/26 11:30:20;;;;;;;5.45;4.75;;;24.60;53.80;;;;;;5055017;28;20177;-82
2021/07/26 11:32:54;;;;;;;4.80;4.22;;;24.70;53.80;;;;;;5055557;28;20281;-82
2021/07/26 11:35:32;;;;;;;5.97;4.82;;;24.60;53.80;;;;;;5071994;28;20207;-81
2021/07/26 11:38:07;;;;;;;5.50;4.40;;;24.70;53.80;;;;;;5056379;28;20191;-82
2021/07/26 11:40:37;;;;;;;5.45;4.65;;;24.70;53.60;;;;;;5071864;28;20187;-82
2021/07/26 11:43:07;;;;;;;5.68;4.90;;;24.70;53.60;;;;;;5087304;28;20255;-82
2021/07/26 11:45:36;;;;;;;5.30;4.57;;;24.60;53.70;;;;;;5088372;28;20190;-82
2021/07/26 11:48:08;;;;;;;5.57;4.88;;;24.60;53.80;;;;;;5070877;28;20180;-82
2021/07/26 11:50:40;;;;;;;5.93;4.93;;;24.70;53.60;;;;;;5055337;28;20192;-82
2021/07/26 11:53:09;;;;;;;5.28;4.65;;;24.70;53.80;;;;;;5071223;28;20551;-82
2021/07/26 11:55:39;;;;;;;6.68;4.80;;;24.60;53.80;;;;;;5070862;28;20212;-82
2021/07/26 11:58:11;;;;;;;6.15;5.18;;;24.60;53.90;;;;;;5070920;28;20181;-82
2021/07/26 12:00:44;;;;;;;6.35;4.40;;;24.60;53.80;;;;;;5087337;28;20207;-82
2021/07/26 12:03:10;;;;;;;5.65;5.05;;;24.60;53.80;;;;;;5088088;28;20253;-82
2021/07/26 12:05:41;;;;;;;5.72;4.65;;;24.70;53.70;;;;;;5071837;28;20168;-82
2021/07/26 12:08:19;;;;;;;5.70;4.63;;;24.60;53.70;;;;;;5070901;28;20176;-82
2021/07/26 12:10:51;;;;;;;6.28;5.10;;;24.60;53.80;;;;;;5087672;28;20655;-81
2021/07/26 12:13:20;;;;;;;5.00;4.50;;;24.70;53.70;;;;;;5070477;28;20172;-82
2021/07/26 12:16:06;;;;;;;6.50;4.70;;;24.70;53.70;;;;;;5071288;28;20211;-82
2021/07/26 12:18:38;;;;;;;5.75;4.90;;;24.60;53.60;;;;;;5072253;28;20190;-82
2021/07/26 12:21:11;;;;;;;4.93;4.40;;;24.70;53.70;;;;;;5087074;28;20185;-82
2021/07/26 12:23:39;;;;;;;6.13;4.97;;;24.70;53.70;;;;;;5070528;28;20181;-82
2021/07/26 12:26:11;;;;;;;6.57;5.07;;;24.60;53.80;;;;;;5070663;28;20196;-82
2021/07/26 12:28:42;;;;;;;6.13;5.13;;;24.60;53.80;;;;;;5087023;28;20181;-82
2021/07/26 12:31:31;;;;;;;6.25;4.88;;;24.60;53.80;;;;;;5071326;28;20184;-81
2021/07/26 12:34:11;;;;;;;5.15;4.65;;;24.60;53.80;;;;;;5088608;28;20165;-82
2021/07/26 12:36:42;;;;;;;6.53;4.97;;;24.60;53.80;;;;;;5104905;28;20187;-82
2021/07/26 12:39:11;;;;;;;5.28;4.43;;;24.60;53.80;;;;;;5054523;28;20215;-82
2021/07/26 12:41:44;;;;;;;5.80;5.20;;;24.60;53.80;;;;;;5068373;28;20239;-81
2021/07/26 12:44:13;;;;;;;6.18;4.72;;;24.60;53.80;;;;;;5070145;28;20275;-81
2021/07/26 12:46:46;;;;;;;5.43;4.60;;;24.70;53.70;;;;;;5086278;28;20196;-82
2021/07/26 12:49:16;;;;;;;5.75;4.80;;;24.60;53.60;;;;;;5069398;28;20187;-82
2021/07/26 12:51:43;;;;;;;4.85;4.35;;;24.70;53.60;;;;;;5084778;28;20263;-82
2021/07/26 12:54:10;;;;;;;5.78;4.72;;;24.70;53.50;;;;;;5085890;28;20177;-82
2021/07/26 12:56:37;;;;;;;6.05;5.05;;;24.80;53.60;;;;;;5069570;28;20228;-82
2021/07/26 12:59:04;;;;;;;5.82;4.45;;;24.80;53.60;;;;;;5068771;28;20189;-82
2021/07/26 13:01:31;;;;;;;5.57;4.60;;;24.80;54.20;;;;;;5086097;28;20185;-82
2021/07/26 13:03:58;;;;;;;5.50;4.90;;;24.60;53.50;;;;;;5053132;28;20224;-82